Accueil
METAR-TAF:

METAR-TAF

Aéroports :

Presque_Isle_County_Airport

Rogers City, Michigan, États-Unis

latitude: 45-24-25N, longitude: 083-48-46W, altitude: 204 m

Observation

Le bulletin a été fait il y a 27 minutes, à 07:55 UTC
Vent 3 kt de sud-est
Température 12°C
Humidité 94%
Pression 1011 hPa
Visibilité: 16.1 km
Ciel couvert à une hauteur de 300 ft
pluie faible

METAR: KPZQ 210755Z AUTO 14003KT 10SM -RA OVC003 12/11 A2984 RMK AO2 T01160113

Heure: 04:22 (08:22 UTC)


TAF: absent

Observations et prévisions météorologiques de plus de 4000 aéroports (messages METAR et TAF).

Les stations disponibles sont représentées par des disques jaunes et rouges sur la carte.

Passer la souris dessus pour voir le nom de la station.

Cliquer dessus pour voir les observations et prévisions météorologiques.

Pour changer de carte: cliquez sur les boutons verts avec une croix noire pour zoomer, sur le bouton vert avec un tiret pour effectuer un zoom arrière, ou sur les flèches vertes pour les cartes adjacentes.


METAR-TAF: